createdAt,value
2022-11-23T00:00:45.841Z,4.40
2022-11-23T00:02:47.476Z,4.40
2022-11-23T00:04:49.154Z,4.40
2022-11-23T00:06:50.836Z,4.30
2022-11-23T00:08:52.771Z,4.20
2022-11-23T00:10:57.835Z,4.30
2022-11-23T00:12:59.455Z,4.20
2022-11-23T00:15:01.040Z,4.10
2022-11-23T00:17:02.755Z,4.10
2022-11-23T00:19:04.349Z,4.10
2022-11-23T00:21:06.785Z,3.90
2022-11-23T00:23:08.999Z,4.00
2022-11-23T00:25:10.703Z,4.10
2022-11-23T00:27:12.463Z,4.00
2022-11-23T00:29:14.197Z,4.00
2022-11-23T00:31:17.447Z,4.00
2022-11-23T00:33:19.061Z,4.00
2022-11-23T00:35:20.685Z,4.00
2022-11-23T00:37:22.290Z,3.90
2022-11-23T00:39:23.853Z,3.90
2022-11-23T00:41:26.258Z,3.90
2022-11-23T00:43:28.693Z,3.90
2022-11-23T00:45:30.230Z,3.90
2022-11-23T00:47:31.771Z,3.90
2022-11-23T00:49:33.468Z,3.90
2022-11-23T00:51:35.946Z,4.00
2022-11-23T00:53:37.805Z,4.20
2022-11-23T00:55:39.419Z,4.10
2022-11-23T00:57:40.996Z,4.20
2022-11-23T00:59:42.547Z,4.30
2022-11-23T01:01:44.110Z,4.20
2022-11-23T01:03:50.032Z,4.10
2022-11-23T01:05:51.613Z,4.20
2022-11-23T01:07:54.617Z,4.20
2022-11-23T01:09:56.515Z,4.30
2022-11-23T01:11:58.171Z,4.40
2022-11-23T01:14:00.194Z,4.50
2022-11-23T01:16:01.983Z,4.50
2022-11-23T01:18:03.609Z,4.60
2022-11-23T01:20:05.506Z,4.60
2022-11-23T01:22:07.065Z,4.60
2022-11-23T01:24:11.362Z,4.60
2022-11-23T01:26:12.946Z,4.60
2022-11-23T01:28:14.635Z,4.50
2022-11-23T01:30:16.342Z,4.60
2022-11-23T01:32:17.930Z,4.70
2022-11-23T01:34:19.587Z,4.60
2022-11-23T01:36:22.644Z,4.60
2022-11-23T01:38:24.226Z,4.50
2022-11-23T01:40:25.875Z,4.40
2022-11-23T01:42:46.381Z,4.50
2022-11-23T01:44:48.159Z,4.50
2022-11-23T01:46:49.749Z,4.60
2022-11-23T01:48:51.276Z,4.70
2022-11-23T01:50:53.645Z,4.60
2022-11-23T01:52:56.078Z,4.60
2022-11-23T01:54:59.209Z,4.60
2022-11-23T01:57:12.352Z,4.50
2022-11-23T01:59:16.367Z,4.50
2022-11-23T02:01:18.015Z,4.50
2022-11-23T02:03:19.916Z,4.50
2022-11-23T02:05:23.224Z,4.50
2022-11-23T02:07:25.239Z,4.50
2022-11-23T02:09:29.353Z,4.50
2022-11-23T02:11:31.259Z,4.50
2022-11-23T02:13:32.884Z,4.60
2022-11-23T02:15:35.129Z,4.50
2022-11-23T02:17:36.666Z,4.50
2022-11-23T02:19:57.245Z,4.50
2022-11-23T02:21:58.834Z,4.40
2022-11-23T02:24:03.984Z,4.30
2022-11-23T02:26:17.893Z,4.20
2022-11-23T02:28:26.705Z,4.20
2022-11-23T02:30:29.382Z,4.20
2022-11-23T02:32:31.610Z,4.20
2022-11-23T02:34:33.242Z,4.10
2022-11-23T02:36:37.955Z,4.00
2022-11-23T02:38:39.587Z,4.10
2022-11-23T02:40:41.181Z,4.00
2022-11-23T02:42:43.995Z,4.00
2022-11-23T02:44:54.401Z,4.00
2022-11-23T02:46:55.977Z,3.90
2022-11-23T02:48:57.629Z,3.80
2022-11-23T02:50:59.200Z,3.80
2022-11-23T02:53:00.753Z,3.80
2022-11-23T02:55:02.337Z,3.80
2022-11-23T02:57:04.015Z,3.70
2022-11-23T02:59:05.619Z,3.70
2022-11-23T03:01:07.368Z,3.70
2022-11-23T03:03:09.079Z,3.70
2022-11-23T03:05:10.697Z,3.60
2022-11-23T03:07:12.359Z,3.60
2022-11-23T03:09:14.006Z,3.60
2022-11-23T03:11:15.996Z,3.50
2022-11-23T03:13:17.554Z,3.50
2022-11-23T03:15:19.139Z,3.40
2022-11-23T03:17:20.811Z,3.40
2022-11-23T03:19:22.373Z,3.30
2022-11-23T03:21:23.967Z,3.30
2022-11-23T03:23:25.580Z,3.30
2022-11-23T03:25:27.110Z,3.30
2022-11-23T03:27:29.250Z,3.30
2022-11-23T03:29:31.021Z,3.40
2022-11-23T03:31:32.807Z,3.40
2022-11-23T03:33:34.442Z,3.30
2022-11-23T03:35:36.070Z,3.30
2022-11-23T03:37:37.636Z,3.40
2022-11-23T03:39:42.857Z,3.50
2022-11-23T03:41:47.433Z,3.40
2022-11-23T03:43:48.970Z,3.50
2022-11-23T03:45:50.499Z,3.50
2022-11-23T03:47:52.234Z,3.60
2022-11-23T03:49:53.786Z,3.60
2022-11-23T03:51:55.364Z,3.60
2022-11-23T03:53:56.957Z,3.70
2022-11-23T03:55:58.670Z,3.70
2022-11-23T03:58:01.877Z,3.80
2022-11-23T04:00:04.355Z,3.80
2022-11-23T04:02:07.794Z,3.80
2022-11-23T04:04:09.479Z,3.80
2022-11-23T04:06:11.149Z,3.80
2022-11-23T04:08:12.740Z,3.80
2022-11-23T04:10:15.269Z,3.80
2022-11-23T04:12:16.792Z,4.00
2022-11-23T04:14:20.141Z,3.80
2022-11-23T04:16:21.832Z,3.80
2022-11-23T04:18:23.441Z,3.80
2022-11-23T04:20:25.303Z,3.90
2022-11-23T04:22:26.906Z,3.80
2022-11-23T04:24:28.530Z,3.90
2022-11-23T04:26:30.194Z,4.00
2022-11-23T04:28:31.941Z,4.00
2022-11-23T04:30:33.558Z,3.90
2022-11-23T04:32:35.093Z,3.90
2022-11-23T04:34:37.165Z,4.00
2022-11-23T04:36:38.809Z,4.00
2022-11-23T04:38:40.377Z,4.00
2022-11-23T04:40:41.933Z,4.10
2022-11-23T04:42:43.518Z,4.10
2022-11-23T04:44:45.868Z,4.10
2022-11-23T04:46:47.641Z,4.10
2022-11-23T04:48:49.222Z,4.10
2022-11-23T04:50:54.320Z,4.10
2022-11-23T04:52:57.167Z,4.00
2022-11-23T04:54:58.722Z,4.10
2022-11-23T04:57:00.336Z,4.00
2022-11-23T04:59:01.937Z,3.90
2022-11-23T05:01:03.762Z,3.90
2022-11-23T05:03:05.775Z,3.90
2022-11-23T05:05:07.568Z,3.90
2022-11-23T05:07:09.172Z,3.80
2022-11-23T05:09:10.973Z,3.80
2022-11-23T05:11:12.538Z,3.80
2022-11-23T05:13:14.705Z,3.80
2022-11-23T05:15:16.351Z,3.70
2022-11-23T05:17:18.038Z,3.60
2022-11-23T05:19:19.593Z,3.70
2022-11-23T05:21:21.416Z,3.60
2022-11-23T05:23:22.999Z,3.60
2022-11-23T05:25:25.002Z,3.50
2022-11-23T05:27:26.583Z,3.50
2022-11-23T05:29:28.118Z,3.50
2022-11-23T05:31:29.635Z,3.50
2022-11-23T05:33:31.234Z,3.50
2022-11-23T05:35:32.804Z,3.50
2022-11-23T05:37:34.426Z,3.40
2022-11-23T05:39:36.002Z,3.40
2022-11-23T05:41:37.586Z,3.40
2022-11-23T05:43:39.163Z,3.40
2022-11-23T05:45:40.764Z,3.30
2022-11-23T05:47:42.390Z,3.30
2022-11-23T05:49:44.064Z,3.30
2022-11-23T05:51:45.690Z,3.30
2022-11-23T05:53:47.734Z,3.30
2022-11-23T05:55:49.360Z,3.20
2022-11-23T05:57:51.179Z,3.20
2022-11-23T05:59:52.942Z,3.10
2022-11-23T06:01:54.535Z,3.10
2022-11-23T06:03:56.133Z,3.20
2022-11-23T06:05:57.705Z,3.30
2022-11-23T06:07:59.297Z,3.40
2022-11-23T06:10:01.144Z,3.40
2022-11-23T06:12:02.816Z,3.50
2022-11-23T06:14:04.575Z,3.50
2022-11-23T06:16:06.316Z,3.50
2022-11-23T06:18:08.958Z,3.50
2022-11-23T06:20:10.672Z,3.50
2022-11-23T06:22:12.443Z,3.40
2022-11-23T06:24:14.212Z,3.50
2022-11-23T06:26:15.780Z,3.50
2022-11-23T06:28:17.372Z,3.60
2022-11-23T06:30:19.014Z,3.50
2022-11-23T06:32:20.602Z,3.40
2022-11-23T06:34:22.188Z,3.30
2022-11-23T06:36:23.729Z,3.30
2022-11-23T06:38:25.560Z,3.30
2022-11-23T06:40:27.517Z,3.20
2022-11-23T06:42:38.813Z,3.20
2022-11-23T06:44:41.225Z,3.20
2022-11-23T06:46:42.778Z,3.10
2022-11-23T06:48:44.904Z,3.10
2022-11-23T06:50:46.696Z,3.00
2022-11-23T06:52:48.277Z,3.00
2022-11-23T06:54:49.811Z,3.00
2022-11-23T06:56:51.497Z,2.90
2022-11-23T06:58:53.171Z,3.00
2022-11-23T07:00:54.833Z,3.00
2022-11-23T07:02:56.515Z,3.00
2022-11-23T07:04:58.232Z,3.00
2022-11-23T07:06:59.794Z,3.10
2022-11-23T07:09:02.819Z,3.10
2022-11-23T07:11:06.538Z,2.90
2022-11-23T07:13:08.983Z,2.90
2022-11-23T07:15:10.990Z,2.90
2022-11-23T07:17:16.220Z,2.90
2022-11-23T07:19:19.069Z,2.90
2022-11-23T07:21:20.699Z,2.90
2022-11-23T07:23:22.237Z,2.80
2022-11-23T07:25:23.869Z,2.90
2022-11-23T07:27:25.470Z,2.90
2022-11-23T07:29:27.118Z,2.80
2022-11-23T07:31:28.747Z,2.90
2022-11-23T07:33:30.312Z,2.80
2022-11-23T07:35:32.866Z,2.70
2022-11-23T07:37:35.793Z,2.80
2022-11-23T07:39:56.359Z,2.90
2022-11-23T07:42:24.814Z,3.00
2022-11-23T07:44:20.806Z,3.00
2022-11-23T07:46:22.562Z,2.90
2022-11-23T07:48:37.483Z,2.90
2022-11-23T07:50:42.867Z,3.00
2022-11-23T07:52:47.507Z,3.00
2022-11-23T07:54:50.222Z,3.00
2022-11-23T07:56:56.376Z,3.10
2022-11-23T07:59:09.400Z,3.10
2022-11-23T08:01:22.005Z,3.10
2022-11-23T08:03:46.779Z,3.20
2022-11-23T08:05:48.621Z,3.20
2022-11-23T08:07:50.287Z,3.40
2022-11-23T08:09:51.894Z,3.70
2022-11-23T08:11:53.556Z,3.80
2022-11-23T08:13:55.256Z,3.80
2022-11-23T08:15:56.877Z,3.70
2022-11-23T08:18:01.808Z,3.70
2022-11-23T08:20:03.501Z,3.70
2022-11-23T08:22:05.154Z,3.80
2022-11-23T08:24:06.838Z,3.80
2022-11-23T08:26:13.443Z,3.90
2022-11-23T08:28:15.661Z,4.00
2022-11-23T08:30:22.380Z,4.10
2022-11-23T08:32:24.058Z,4.20
2022-11-23T08:34:25.701Z,4.40
2022-11-23T08:36:27.257Z,4.40
2022-11-23T08:38:28.834Z,4.50
2022-11-23T08:40:30.483Z,4.60
2022-11-23T08:42:32.085Z,4.60
2022-11-23T08:44:34.125Z,4.60
2022-11-23T08:46:36.341Z,4.70
2022-11-23T08:48:38.244Z,4.70
2022-11-23T08:50:39.997Z,4.80
2022-11-23T08:52:41.600Z,4.90
2022-11-23T08:54:43.203Z,5.00
2022-11-23T08:56:44.914Z,5.10
2022-11-23T08:58:46.876Z,5.10
2022-11-23T09:00:48.496Z,5.20
2022-11-23T09:02:50.146Z,5.40
2022-11-23T09:04:54.404Z,5.50
2022-11-23T09:06:56.404Z,5.70
2022-11-23T09:08:58.034Z,5.70
2022-11-23T09:11:07.250Z,5.70
2022-11-23T09:13:08.881Z,5.90
2022-11-23T09:15:10.605Z,6.10
2022-11-23T09:17:12.256Z,6.30
2022-11-23T09:19:14.188Z,6.50
2022-11-23T09:21:15.747Z,6.60
2022-11-23T09:23:17.305Z,6.70
2022-11-23T09:25:19.088Z,6.80
2022-11-23T09:27:20.696Z,6.70
2022-11-23T09:29:22.578Z,6.80
2022-11-23T09:31:24.899Z,6.90
2022-11-23T09:33:26.554Z,7.20
2022-11-23T09:35:28.237Z,7.00
2022-11-23T09:37:29.951Z,7.00
2022-11-23T09:39:31.606Z,7.30
2022-11-23T09:41:42.352Z,7.30
2022-11-23T09:44:02.436Z,7.40
2022-11-23T09:46:11.974Z,7.40
2022-11-23T09:48:25.956Z,7.70
2022-11-23T09:50:30.456Z,7.90
2022-11-23T09:52:32.261Z,8.20
2022-11-23T09:54:36.622Z,8.30
2022-11-23T09:56:39.358Z,8.30
2022-11-23T09:58:41.296Z,8.30
2022-11-23T10:00:52.462Z,8.20
2022-11-23T10:02:54.217Z,8.20
2022-11-23T10:04:57.661Z,8.50
2022-11-23T10:07:07.809Z,8.70
2022-11-23T10:09:15.970Z,8.90
2022-11-23T10:11:29.763Z,8.90
2022-11-23T10:13:38.261Z,8.90
2022-11-23T10:15:52.715Z,9.00
2022-11-23T10:18:06.636Z,8.90
2022-11-23T10:20:11.182Z,9.10
2022-11-23T10:22:19.829Z,9.30
2022-11-23T10:24:25.802Z,9.00
2022-11-23T10:26:29.600Z,9.30
2022-11-23T10:28:32.657Z,9.50
2022-11-23T10:30:34.346Z,9.50
2022-11-23T10:32:39.192Z,9.30
2022-11-23T10:34:51.125Z,9.30
2022-11-23T10:36:52.750Z,9.30
2022-11-23T10:38:57.650Z,9.60
2022-11-23T10:41:07.403Z,9.70
2022-11-23T10:43:21.368Z,9.90
2022-11-23T10:45:24.655Z,9.80
2022-11-23T10:47:38.858Z,9.60
2022-11-23T10:49:56.087Z,9.60
2022-11-23T10:51:57.659Z,9.80
2022-11-23T10:54:05.681Z,9.90
2022-11-23T10:56:14.778Z,9.90
2022-11-23T10:58:29.878Z,10.10
2022-11-23T11:00:31.787Z,10.30
2022-11-23T11:02:45.163Z,10.30
2022-11-23T11:04:47.750Z,10.10
2022-11-23T11:06:49.396Z,9.90
2022-11-23T11:08:52.229Z,10.40
2022-11-23T11:10:58.345Z,10.70
2022-11-23T11:12:59.975Z,10.90
2022-11-23T11:15:11.000Z,11.10
2022-11-23T11:17:25.242Z,11.20
2022-11-23T11:19:28.135Z,11.10
2022-11-23T11:21:32.952Z,11.20
2022-11-23T11:23:39.029Z,11.10
2022-11-23T11:25:40.659Z,11.50
2022-11-23T11:27:50.893Z,11.20
2022-11-23T11:29:55.340Z,11.20
2022-11-23T11:32:02.778Z,11.60
2022-11-23T11:34:20.139Z,12.10
2022-11-23T11:36:22.313Z,12.20
2022-11-23T11:38:27.501Z,11.80
2022-11-23T11:40:34.453Z,11.80
2022-11-23T11:42:38.936Z,11.50
2022-11-23T11:44:41.940Z,12.20
2022-11-23T11:46:47.631Z,12.30
2022-11-23T11:48:54.817Z,12.80
2022-11-23T11:50:58.319Z,12.30
2022-11-23T11:53:08.363Z,12.40
2022-11-23T11:55:19.875Z,12.70
2022-11-23T11:57:21.549Z,12.90
2022-11-23T11:59:31.896Z,13.20
2022-11-23T12:01:36.770Z,13.20
2022-11-23T12:03:42.967Z,12.40
2022-11-23T12:05:44.552Z,12.30
2022-11-23T12:08:04.765Z,12.90
2022-11-23T12:10:21.704Z,13.10
2022-11-23T12:12:28.355Z,13.20
2022-11-23T12:14:32.000Z,12.90
2022-11-23T12:17:24.765Z,13.10
2022-11-23T12:19:29.423Z,13.50
2022-11-23T12:21:45.123Z,13.10
2022-11-23T12:24:05.513Z,13.30
2022-11-23T12:26:12.861Z,13.70
2022-11-23T12:28:23.395Z,13.80
2022-11-23T12:30:25.973Z,14.10
2022-11-23T12:32:40.237Z,14.10
2022-11-23T12:34:52.315Z,14.00
2022-11-23T12:37:12.807Z,14.20
2022-11-23T12:39:23.527Z,14.40
2022-11-23T12:41:54.583Z,14.40
2022-11-23T12:44:14.917Z,14.30
2022-11-23T12:46:25.504Z,14.00
2022-11-23T12:48:39.290Z,14.00
2022-11-23T12:51:04.209Z,13.50
2022-11-23T12:53:24.676Z,13.30
2022-11-23T12:55:52.176Z,13.80
2022-11-23T12:57:58.615Z,14.60
2022-11-23T13:00:03.082Z,14.80
2022-11-23T13:02:09.653Z,14.70
2022-11-23T13:04:12.029Z,14.30
2022-11-23T13:06:16.514Z,14.10
2022-11-23T13:08:18.227Z,14.30
2022-11-23T13:10:25.871Z,14.10
2022-11-23T13:12:27.465Z,13.90
2022-11-23T13:14:32.509Z,14.20
2022-11-23T13:16:34.531Z,14.10
2022-11-23T13:18:42.108Z,13.50
2022-11-23T13:20:46.729Z,13.50
2022-11-23T13:22:49.371Z,13.90
2022-11-23T13:25:03.208Z,14.30
2022-11-23T13:27:13.687Z,14.20
2022-11-23T13:29:33.657Z,14.60
2022-11-23T13:31:35.988Z,14.10
2022-11-23T13:33:38.135Z,14.10
2022-11-23T13:35:42.825Z,14.30
2022-11-23T13:37:56.723Z,14.20
2022-11-23T13:40:00.999Z,14.10
2022-11-23T13:42:02.605Z,14.40
2022-11-23T13:44:24.447Z,14.00
2022-11-23T13:46:29.472Z,13.70
2022-11-23T13:50:52.636Z,14.00
2022-11-23T13:52:54.286Z,13.80
2022-11-23T13:55:05.632Z,14.00
2022-11-23T13:57:13.182Z,13.60
2022-11-23T13:59:23.913Z,13.80
2022-11-23T14:01:44.623Z,14.00
2022-11-23T14:03:49.742Z,13.60
2022-11-23T14:05:56.871Z,13.40
2022-11-23T14:08:00.781Z,13.40
2022-11-23T14:10:15.021Z,13.90
2022-11-23T14:12:29.052Z,14.10
2022-11-23T14:14:42.870Z,14.00
2022-11-23T14:17:15.356Z,14.10
2022-11-23T14:19:26.937Z,14.10
2022-11-23T14:21:40.096Z,13.70
2022-11-23T14:24:00.048Z,13.60
2022-11-23T14:26:20.464Z,13.70
2022-11-23T14:28:37.353Z,13.60
2022-11-23T14:30:43.447Z,13.20
2022-11-23T14:32:45.036Z,13.00
2022-11-23T14:34:55.799Z,12.90
2022-11-23T14:37:00.904Z,12.80
2022-11-23T14:39:21.276Z,12.60
2022-11-23T14:41:24.608Z,12.20
2022-11-23T14:43:28.118Z,12.00
2022-11-23T14:45:31.607Z,11.80
2022-11-23T14:47:33.293Z,11.60
2022-11-23T14:49:35.114Z,11.50
2022-11-23T14:51:40.803Z,11.50
2022-11-23T14:53:46.878Z,11.40
2022-11-23T14:55:50.071Z,11.30
2022-11-23T14:57:55.589Z,11.20
2022-11-23T14:59:59.486Z,11.00
2022-11-23T15:02:02.874Z,10.70
2022-11-23T15:04:09.187Z,10.40
2022-11-23T15:06:14.272Z,10.30
2022-11-23T15:08:18.817Z,10.00
2022-11-23T15:10:20.354Z,9.80
2022-11-23T15:12:23.728Z,9.70
2022-11-23T15:14:26.142Z,9.80
2022-11-23T15:16:38.237Z,9.80
2022-11-23T15:18:39.971Z,9.60
2022-11-23T15:20:43.439Z,9.40
2022-11-23T15:22:45.084Z,9.30
2022-11-23T15:24:47.218Z,9.20
2022-11-23T15:26:49.609Z,9.20
2022-11-23T15:28:51.553Z,9.20
2022-11-23T15:30:58.080Z,9.00
2022-11-23T15:33:01.723Z,8.90
2022-11-23T15:35:06.561Z,8.80
2022-11-23T15:37:09.520Z,8.70
2022-11-23T15:39:16.196Z,8.60
2022-11-23T15:41:18.494Z,8.50
2022-11-23T15:43:20.352Z,8.50
2022-11-23T15:45:34.612Z,8.40
2022-11-23T15:47:38.004Z,8.40
2022-11-23T15:49:40.062Z,8.40
2022-11-23T15:51:42.768Z,8.40
2022-11-23T15:53:49.064Z,8.40
2022-11-23T15:55:51.294Z,8.30
2022-11-23T15:57:54.140Z,8.30
2022-11-23T15:59:57.231Z,8.30
2022-11-23T16:02:01.334Z,8.20
2022-11-23T16:04:04.697Z,8.20
2022-11-23T16:06:09.607Z,8.20
2022-11-23T16:08:24.619Z,8.20
2022-11-23T16:10:27.384Z,8.10
2022-11-23T16:12:29.998Z,8.10
2022-11-23T16:14:33.431Z,8.30
2022-11-23T16:16:35.672Z,8.40
2022-11-23T16:18:42.715Z,8.30
2022-11-23T16:20:45.278Z,8.30
2022-11-23T16:22:50.425Z,8.30
2022-11-23T16:24:53.688Z,8.30
2022-11-23T16:26:55.394Z,8.30
2022-11-23T16:28:58.082Z,8.30
2022-11-23T16:31:00.172Z,8.30
2022-11-23T16:33:01.960Z,8.20
2022-11-23T16:35:16.370Z,8.20
2022-11-23T16:37:18.030Z,8.20
2022-11-23T16:39:25.494Z,8.20
2022-11-23T16:41:44.469Z,8.20
2022-11-23T16:43:51.979Z,8.20
2022-11-23T16:46:03.121Z,8.30
2022-11-23T16:48:16.587Z,8.40
2022-11-23T16:50:18.223Z,8.50
2022-11-23T16:52:40.625Z,8.40
2022-11-23T16:54:53.371Z,8.40
2022-11-23T16:57:03.073Z,8.40
2022-11-23T16:59:14.270Z,8.40
2022-11-23T17:01:35.100Z,8.30
2022-11-23T17:03:41.264Z,8.30
2022-11-23T17:05:50.523Z,8.40
2022-11-23T17:13:03.567Z,8.30
2022-11-23T17:15:17.206Z,8.20
2022-11-23T17:17:36.521Z,8.10
2022-11-23T17:22:07.020Z,8.00
2022-11-23T17:24:47.238Z,7.90
2022-11-23T17:26:59.525Z,8.00
2022-11-23T17:29:07.170Z,7.80
2022-11-23T17:31:18.901Z,7.90
2022-11-23T17:33:33.793Z,7.80
2022-11-23T17:35:46.977Z,7.70
2022-11-23T17:37:48.622Z,7.70
2022-11-23T17:39:50.887Z,7.70
2022-11-23T17:42:03.231Z,7.70
2022-11-23T17:44:18.094Z,7.70
2022-11-23T17:46:21.522Z,7.60
2022-11-23T17:48:23.125Z,7.60
2022-11-23T17:50:25.143Z,7.50
2022-11-23T17:52:27.185Z,7.60
2022-11-23T17:54:42.024Z,7.60
2022-11-23T17:56:48.136Z,7.60
2022-11-23T17:58:53.349Z,7.60
2022-11-23T18:00:57.195Z,7.60
2022-11-23T18:02:58.895Z,7.70
2022-11-23T18:05:00.650Z,7.70
2022-11-23T18:07:03.405Z,7.90
2022-11-23T18:09:07.781Z,7.90
2022-11-23T18:11:16.340Z,7.90
2022-11-23T18:13:20.770Z,7.80
2022-11-23T18:15:23.574Z,7.70
2022-11-23T18:17:25.334Z,7.60
2022-11-23T18:19:33.034Z,7.50
2022-11-23T18:21:34.798Z,7.50
2022-11-23T18:23:46.220Z,7.50
2022-11-23T18:25:57.184Z,7.50
2022-11-23T18:27:59.428Z,7.50
2022-11-23T18:30:05.607Z,7.50
2022-11-23T18:32:12.347Z,7.50
2022-11-23T18:34:17.916Z,7.50
2022-11-23T18:36:19.779Z,7.40
2022-11-23T18:38:26.892Z,7.40
2022-11-23T18:40:34.472Z,7.40
2022-11-23T18:42:36.057Z,7.50
2022-11-23T18:44:40.371Z,7.50
2022-11-23T18:46:45.804Z,7.50
2022-11-23T18:48:48.729Z,7.50
2022-11-23T18:50:56.040Z,7.40
2022-11-23T18:53:02.287Z,7.40
2022-11-23T18:55:04.000Z,7.40
2022-11-23T18:57:05.615Z,7.40
2022-11-23T18:59:42.138Z,7.30
2022-11-23T19:01:44.923Z,7.30
2022-11-23T19:03:47.694Z,7.40
2022-11-23T19:05:49.338Z,7.40
2022-11-23T19:07:59.986Z,7.40
2022-11-23T19:10:09.786Z,7.40
2022-11-23T19:12:12.683Z,7.40
2022-11-23T19:14:18.805Z,7.30
2022-11-23T19:16:23.115Z,7.30
2022-11-23T19:18:24.848Z,7.30
2022-11-23T19:20:26.487Z,7.30
2022-11-23T19:22:28.283Z,7.30
2022-11-23T19:24:30.016Z,7.30
2022-11-23T19:26:31.718Z,7.20
2022-11-23T19:28:33.478Z,7.20
2022-11-23T19:30:35.121Z,7.20
2022-11-23T19:32:37.297Z,7.30
2022-11-23T19:34:41.477Z,7.30
2022-11-23T19:36:43.350Z,7.40
2022-11-23T19:38:45.256Z,7.30
2022-11-23T19:40:54.848Z,7.30
2022-11-23T19:42:56.539Z,7.30
2022-11-23T19:44:58.270Z,7.40
2022-11-23T19:47:00.075Z,7.40
2022-11-23T19:49:01.949Z,7.40
2022-11-23T19:51:09.775Z,7.30
2022-11-23T19:53:13.651Z,7.30
2022-11-23T19:55:15.335Z,7.40
2022-11-23T19:57:16.918Z,7.40
2022-11-23T19:59:18.570Z,7.50
2022-11-23T20:01:21.895Z,7.40
2022-11-23T20:03:23.623Z,7.30
2022-11-23T20:05:25.656Z,7.40
2022-11-23T20:07:27.572Z,7.40
2022-11-23T20:09:29.345Z,7.50
2022-11-23T20:11:32.000Z,7.50
2022-11-23T20:13:34.470Z,7.40
2022-11-23T20:15:37.757Z,7.40
2022-11-23T20:17:39.595Z,7.50
2022-11-23T20:19:41.709Z,7.50
2022-11-23T20:21:43.584Z,7.50
2022-11-23T20:23:46.292Z,7.60
2022-11-23T20:25:48.076Z,7.70
2022-11-23T20:27:49.897Z,7.70
2022-11-23T20:29:51.705Z,7.80
2022-11-23T20:31:58.833Z,7.80
2022-11-23T20:34:00.875Z,7.70
2022-11-23T20:36:09.476Z,7.70
2022-11-23T20:38:11.439Z,7.70
2022-11-23T20:40:13.269Z,7.70
2022-11-23T20:42:15.128Z,7.70
2022-11-23T20:44:17.235Z,7.70
2022-11-23T20:46:38.120Z,7.70
2022-11-23T20:48:43.954Z,7.60
2022-11-23T20:50:45.642Z,7.60
2022-11-23T20:52:47.307Z,7.60
2022-11-23T20:54:49.222Z,7.60
2022-11-23T20:56:51.138Z,7.50
2022-11-23T20:58:57.091Z,7.50
2022-11-23T21:01:04.858Z,7.60
2022-11-23T21:03:09.381Z,7.50
2022-11-23T21:05:13.890Z,7.50
2022-11-23T21:07:15.620Z,7.50
2022-11-23T21:09:17.535Z,7.50
2022-11-23T21:11:37.983Z,7.40
2022-11-23T21:13:58.359Z,7.40
2022-11-23T21:16:04.214Z,7.40
2022-11-23T21:18:08.303Z,7.30
2022-11-23T21:20:10.145Z,7.40
2022-11-23T21:22:15.845Z,7.50
2022-11-23T21:24:17.563Z,7.50
2022-11-23T21:26:19.387Z,7.50
2022-11-23T21:28:21.152Z,7.40
2022-11-23T21:30:23.551Z,7.40
2022-11-23T21:32:25.353Z,7.30
2022-11-23T21:34:30.267Z,7.30
2022-11-23T21:36:35.640Z,7.30
2022-11-23T21:38:38.476Z,7.30
2022-11-23T21:40:40.232Z,7.30
2022-11-23T21:42:44.797Z,7.20
2022-11-23T21:44:46.583Z,7.20
2022-11-23T21:46:48.697Z,7.10
2022-11-23T21:48:55.666Z,7.10
2022-11-23T21:51:11.412Z,7.00
2022-11-23T21:53:13.118Z,7.00
2022-11-23T21:55:15.467Z,7.00
2022-11-23T21:57:17.219Z,7.00
2022-11-23T21:59:26.718Z,7.00
2022-11-23T22:01:32.570Z,7.00
2022-11-23T22:03:47.864Z,7.00
2022-11-23T22:05:58.392Z,7.10
2022-11-23T22:10:26.789Z,7.20
2022-11-23T22:12:29.577Z,7.20
2022-11-23T22:14:32.123Z,7.20
2022-11-23T22:16:34.963Z,7.20
2022-11-23T22:18:36.626Z,7.30
2022-11-23T22:20:38.386Z,7.30
2022-11-23T22:22:41.593Z,7.30
2022-11-23T22:24:46.296Z,7.40
2022-11-23T22:27:01.886Z,7.40
2022-11-23T22:29:06.564Z,7.40
2022-11-23T22:31:11.024Z,7.60
2022-11-23T22:33:15.255Z,7.70
2022-11-23T22:35:28.071Z,7.70
2022-11-23T22:37:29.804Z,7.70
2022-11-23T22:39:31.885Z,7.60
2022-11-23T22:41:36.825Z,7.50
2022-11-23T22:43:44.240Z,7.40
2022-11-23T22:45:47.313Z,7.30
2022-11-23T22:47:49.058Z,7.30
2022-11-23T22:49:50.852Z,7.10
2022-11-23T22:51:52.907Z,7.00
2022-11-23T22:54:25.936Z,6.90
2022-11-23T22:56:30.311Z,6.90
2022-11-23T22:58:34.414Z,6.80
2022-11-23T23:00:44.030Z,6.80
2022-11-23T23:02:46.049Z,6.90
2022-11-23T23:04:47.944Z,6.80
2022-11-23T23:06:53.122Z,6.80
2022-11-23T23:08:56.613Z,6.80
2022-11-23T23:11:05.490Z,6.70
2022-11-23T23:13:07.089Z,6.80
2022-11-23T23:15:12.415Z,6.70
2022-11-23T23:17:14.234Z,6.70
2022-11-23T23:19:15.820Z,6.60
2022-11-23T23:21:21.604Z,6.60
2022-11-23T23:23:23.232Z,6.60
2022-11-23T23:25:24.843Z,6.60
2022-11-23T23:27:26.810Z,6.60
2022-11-23T23:29:28.747Z,6.50
2022-11-23T23:31:30.906Z,6.40
2022-11-23T23:33:33.443Z,6.50
2022-11-23T23:35:35.787Z,6.40
2022-11-23T23:37:37.746Z,6.50
2022-11-23T23:39:39.297Z,6.50
2022-11-23T23:41:40.869Z,6.50
2022-11-23T23:43:42.444Z,6.40
2022-11-23T23:45:44.060Z,6.40
2022-11-23T23:47:45.673Z,6.50
2022-11-23T23:49:47.342Z,6.40
2022-11-23T23:51:51.743Z,6.50
2022-11-23T23:53:53.456Z,6.50
2022-11-23T23:55:58.654Z,6.40
2022-11-23T23:58:00.397Z,6.40
